Time;durP1;ratioP1;P1;durP2;ratioP2;P2;SDS_P1;SDS_P2;PMS_P1;PMS_P2;Temp;Humidity;BMP_temperature;BMP_pressure;BME280_temperature;BME280_humidity;BME280_pressure;Samples;Min_cycle;Max_cycle;Signal;HPM_P1;HPM_P2
2023/08/20 00:00:49;;;;;;;5.72;2.50;;;;;;;23.99;70.90;99892.53;4445841;32;34108;-83
2023/08/20 00:03:18;;;;;;;3.65;2.12;;;;;;;24.02;70.69;99890.56;4446678;32;33528;-83
2023/08/20 00:05:47;;;;;;;4.90;2.70;;;;;;;23.99;70.82;99898.72;4451207;32;33086;-83
2023/08/20 00:08:16;;;;;;;4.03;2.35;;;;;;;23.89;71.35;99894.94;4445465;32;33187;-83
2023/08/20 00:10:45;;;;;;;4.18;2.20;;;;;;;23.84;71.43;99891.75;4445830;32;33305;-82
2023/08/20 00:13:14;;;;;;;3.85;2.60;;;;;;;23.88;71.37;99890.62;4445145;32;33530;-83
2023/08/20 00:15:44;;;;;;;4.35;2.53;;;;;;;24.02;70.78;99895.03;4446974;32;33922;-83
2023/08/20 00:18:14;;;;;;;4.62;2.08;;;;;;;23.99;70.53;99893.41;4450646;32;33513;-83
2023/08/20 00:20:45;;;;;;;5.35;2.53;;;;;;;23.97;70.82;99897.97;4434204;32;34520;-83
2023/08/20 00:23:15;;;;;;;3.95;2.30;;;;;;;23.87;71.19;99890.69;4430618;32;34299;-82
2023/08/20 00:25:44;;;;;;;4.62;2.83;;;;;;;24.01;70.18;99888.84;4433885;32;33527;-83
2023/08/20 00:28:14;;;;;;;3.03;2.20;;;;;;;23.96;70.51;99890.94;4451899;32;33734;-83
2023/08/20 00:30:44;;;;;;;4.30;2.33;;;;;;;23.79;71.23;99885.91;4446558;32;33558;-82
2023/08/20 00:33:14;;;;;;;5.78;2.62;;;;;;;23.71;71.54;99888.19;4447148;32;34422;-83
2023/08/20 00:35:42;;;;;;;4.47;2.22;;;;;;;23.83;71.20;99882.97;4446466;32;33231;-83
2023/08/20 00:38:11;;;;;;;2.78;2.00;;;;;;;23.81;71.36;99886.66;4448874;32;33550;-83
2023/08/20 00:40:40;;;;;;;4.55;2.65;;;;;;;24.02;70.32;99881.78;4452358;32;34632;-81
2023/08/20 00:43:09;;;;;;;3.75;2.30;;;;;;;24.05;70.14;99882.41;4446115;32;34090;-83
2023/08/20 00:45:38;;;;;;;4.35;2.45;;;;;;;24.04;70.24;99882.50;4446497;32;33379;-82
2023/08/20 00:48:09;;;;;;;4.18;2.42;;;;;;;24.03;70.35;99883.47;4446111;32;33406;-82
2023/08/20 00:50:40;;;;;;;3.78;2.40;;;;;;;23.95;70.70;99883.12;4451820;32;33196;-82
2023/08/20 00:53:11;;;;;;;5.18;3.28;;;;;;;23.87;70.87;99877.47;4446444;32;34319;-82
2023/08/20 00:55:40;;;;;;;3.97;2.28;;;;;;;23.87;70.54;99882.75;4446563;32;33068;-83
2023/08/20 00:58:10;;;;;;;4.35;2.60;;;;;;;23.82;70.87;99875.09;4445212;32;33436;-82
2023/08/20 01:00:38;;;;;;;5.72;3.25;;;;;;;23.92;70.17;99878.87;4451827;32;33548;-82
2023/08/20 01:03:09;;;;;;;2.92;2.00;;;;;;;23.87;70.58;99882.75;4448536;32;35026;-83
2023/08/20 01:05:40;;;;;;;;;;;;;;;23.75;71.26;99882.62;4446720;32;33075;-82
2023/08/20 01:08:19;;;;;;;3.40;2.12;;;;;;;23.85;70.32;99888.19;4446856;32;33557;-82
2023/08/20 01:10:53;;;;;;;4.20;2.58;;;;;;;23.99;69.78;99889.91;4446128;32;33625;-83
2023/08/20 01:13:22;;;;;;;4.37;2.53;;;;;;;23.88;70.15;99884.47;4452097;32;33682;-82
2023/08/20 01:15:51;;;;;;;5.97;2.50;;;;;;;23.83;70.37;99888.25;4445890;32;33151;-82
2023/08/20 01:18:21;;;;;;;4.18;2.47;;;;;;;23.96;69.67;99888.31;4446118;32;34615;-82
2023/08/20 01:20:56;;;;;;;4.23;2.37;;;;;;;23.82;70.50;99883.06;4445870;32;35542;-82
2023/08/20 01:24:04;;;;;;;5.05;2.95;;;;;;;23.74;70.72;99883.56;4445881;32;34392;-82
2023/08/20 01:26:59;;;;;;;3.58;2.15;;;;;;;23.94;69.78;99892.00;4446187;32;33397;-83
2023/08/20 01:29:30;;;;;;;4.55;2.22;;;;;;;23.76;70.61;99897.56;4452067;32;33877;-83
2023/08/20 01:31:58;;;;;;;5.25;2.80;;;;;;;23.73;70.50;99896.88;4447959;32;33861;-82
2023/08/20 01:34:27;;;;;;;4.43;2.70;;;;;;;23.77;70.50;99896.59;4446785;32;34701;-82
2023/08/20 01:36:56;;;;;;;4.80;2.80;;;;;;;23.76;70.46;99900.22;4447900;32;33537;-82
2023/08/20 01:39:25;;;;;;;4.32;2.30;;;;;;;23.82;70.49;99898.94;4447927;32;33636;-83
2023/08/20 01:41:54;;;;;;;4.85;3.00;;;;;;;23.78;70.56;99903.59;4453399;32;33917;-82
2023/08/20 01:44:23;;;;;;;4.15;2.55;;;;;;;23.63;71.27;99896.59;4437465;32;33473;-82
2023/08/20 01:46:53;;;;;;;5.20;2.72;;;;;;;23.58;71.34;99901.34;4447724;32;33508;-82
2023/08/20 01:49:22;;;;;;;4.85;2.35;;;;;;;23.55;71.66;99894.44;4447799;32;33691;-82
2023/08/20 01:51:51;;;;;;;4.93;2.70;;;;;;;23.67;71.22;99897.25;4447689;32;33443;-82
2023/08/20 01:54:20;;;;;;;4.97;2.40;;;;;;;23.73;70.92;99895.13;4447440;32;33120;-82
2023/08/20 01:56:51;;;;;;;5.07;1.95;;;;;;;23.63;70.83;99896.59;4453388;32;33300;-82
2023/08/20 01:59:23;;;;;;;4.53;2.37;;;;;;;23.42;72.08;99909.44;4447611;32;33418;-82
2023/08/20 02:01:53;;;;;;;5.00;2.42;;;;;;;23.57;71.12;99903.16;4447770;32;34049;-82
2023/08/20 02:04:22;;;;;;;4.82;2.90;;;;;;;23.61;70.87;99898.53;4447917;32;32903;-83
2023/08/20 02:06:51;;;;;;;6.30;2.53;;;;;;;23.54;70.66;99899.84;4447242;32;33680;-83
2023/08/20 02:09:20;;;;;;;4.00;2.12;;;;;;;23.39;71.63;99899.03;4457436;32;33461;-82
2023/08/20 02:11:51;;;;;;;4.75;2.78;;;;;;;23.45;71.10;99890.69;4452619;32;34846;-83
2023/08/20 02:14:20;;;;;;;5.43;3.08;;;;;;;23.61;70.22;99895.88;4452754;32;33608;-82
2023/08/20 02:16:48;;;;;;;4.45;2.40;;;;;;;23.52;70.82;99899.09;4452967;32;34376;-83
2023/08/20 02:19:19;;;;;;;4.28;2.50;;;;;;;23.41;71.66;99891.81;4450444;32;33850;-82
2023/08/20 02:21:48;;;;;;;5.53;2.67;;;;;;;23.35;71.69;99886.94;4440459;32;33275;-83
2023/08/20 02:24:17;;;;;;;5.50;2.83;;;;;;;23.43;71.48;99888.13;4452803;32;33496;-82
2023/08/20 02:26:46;;;;;;;3.80;2.17;;;;;;;23.40;71.25;99890.97;4451405;32;33179;-82
2023/08/20 02:29:15;;;;;;;4.10;2.70;;;;;;;23.55;70.89;99885.66;4451883;32;33901;-82
2023/08/20 02:31:44;;;;;;;4.30;2.37;;;;;;;23.34;71.87;99888.75;4453219;32;34820;-82
2023/08/20 02:34:13;;;;;;;2.95;2.10;;;;;;;23.31;72.17;99883.62;4467717;32;33645;-83
2023/08/20 02:36:43;;;;;;;4.32;2.12;;;;;;;23.31;71.85;99885.41;4473661;32;33243;-82
2023/08/20 02:39:14;;;;;;;6.47;2.95;;;;;;;23.38;71.69;99890.22;4467932;32;33825;-82
2023/08/20 02:41:43;;;;;;;3.85;2.25;;;;;;;23.26;72.25;99888.34;4467689;32;33192;-83
2023/08/20 02:44:12;;;;;;;5.35;2.47;;;;;;;23.23;72.27;99885.06;4467640;32;34549;-83
2023/08/20 02:46:40;;;;;;;4.35;2.65;;;;;;;23.23;72.28;99885.91;4468027;32;33239;-82
2023/08/20 02:49:09;;;;;;;4.40;2.53;;;;;;;23.34;71.61;99882.56;4473130;32;33985;-82
2023/08/20 02:51:38;;;;;;;4.35;2.47;;;;;;;23.17;72.26;99883.62;4457755;32;35230;-83
2023/08/20 02:54:08;;;;;;;3.87;2.22;;;;;;;23.14;72.42;99886.47;4451987;32;34573;-82
2023/08/20 02:56:37;;;;;;;4.53;2.65;;;;;;;23.26;71.92;99884.84;4453103;32;32441;-82
2023/08/20 02:59:06;;;;;;;5.82;3.28;;;;;;;23.16;72.29;99881.94;4451744;32;34220;-82
2023/08/20 03:01:35;;;;;;;4.75;2.47;;;;;;;23.07;72.85;99887.78;4457900;32;34858;-83
2023/08/20 03:04:05;;;;;;;4.65;2.62;;;;;;;23.05;72.84;99889.69;4437742;32;34237;-82
2023/08/20 03:06:34;;;;;;;4.75;2.83;;;;;;;23.12;72.43;99888.34;4436751;32;33511;-82
2023/08/20 03:09:03;;;;;;;4.85;2.87;;;;;;;23.06;72.66;99881.66;4436078;32;33736;-83
2023/08/20 03:11:34;;;;;;;5.28;3.17;;;;;;;23.13;72.35;99887.44;4436224;32;34203;-83
2023/08/20 03:14:03;;;;;;;4.53;2.60;;;;;;;23.09;72.47;99886.75;4436045;32;32956;-82
2023/08/20 03:16:31;;;;;;;4.82;2.92;;;;;;;23.07;72.49;99888.63;4441621;32;33392;-83
2023/08/20 03:19:00;;;;;;;4.72;2.97;;;;;;;23.14;72.09;99886.47;4435216;32;33518;-83
2023/08/20 03:21:29;;;;;;;4.62;2.72;;;;;;;23.10;72.11;99890.25;4432826;32;33515;-82
2023/08/20 03:23:59;;;;;;;5.20;2.97;;;;;;;23.17;71.71;99888.91;4433107;32;34052;-82
2023/08/20 03:26:28;;;;;;;5.20;2.92;;;;;;;22.98;72.66;99895.37;4433155;32;33190;-82
2023/08/20 03:28:58;;;;;;;4.45;2.70;;;;;;;23.20;71.61;99896.69;4438651;32;33857;-83
2023/08/20 03:31:27;;;;;;;;;;;;;;;23.11;71.96;99897.25;4434079;32;33735;-82
2023/08/20 03:33:56;;;;;;;5.22;2.75;;;;;;;23.06;72.16;99899.34;4433152;32;33582;-82
2023/08/20 03:36:25;;;;;;;3.72;2.47;;;;;;;23.06;72.23;99897.53;4433690;32;33395;-82
2023/08/20 03:38:56;;;;;;;5.82;3.00;;;;;;;22.84;73.01;99902.41;4433469;32;34463;-83
2023/08/20 03:41:25;;;;;;;5.05;2.70;;;;;;;22.78;73.56;99903.63;4452010;32;33980;-82
2023/08/20 03:43:54;;;;;;;4.50;2.78;;;;;;;22.96;72.47;99904.31;4443384;32;34300;-82
2023/08/20 03:46:24;;;;;;;4.10;2.67;;;;;;;22.95;72.32;99906.12;4433191;32;34410;-82
2023/08/20 03:48:53;;;;;;;4.37;2.37;;;;;;;23.05;72.00;99908.19;4434925;32;33238;-83
2023/08/20 03:51:22;;;;;;;4.45;2.72;;;;;;;22.89;72.31;99902.97;4433054;32;33564;-83
2023/08/20 03:53:51;;;;;;;5.07;3.37;;;;;;;22.87;73.03;99913.66;4434407;32;34715;-83
2023/08/20 03:56:20;;;;;;;5.03;2.87;;;;;;;23.00;72.08;99914.66;4438740;32;33800;-83
2023/08/20 03:58:49;;;;;;;5.18;2.60;;;;;;;22.94;72.33;99919.44;4432931;32;33986;-82
2023/08/20 04:01:17;;;;;;;5.70;3.08;;;;;;;22.89;72.51;99922.34;4432762;32;33981;-82
2023/08/20 04:03:48;;;;;;;3.90;2.12;;;;;;;22.88;72.76;99919.78;4432678;32;33878;-82
2023/08/20 04:06:17;;;;;;;4.45;2.62;;;;;;;22.91;72.32;99917.81;4433413;32;33529;-82
2023/08/20 04:08:48;;;;;;;5.05;2.47;;;;;;;22.89;72.62;99919.69;4450480;32;33766;-82
2023/08/20 04:11:19;;;;;;;5.18;2.80;;;;;;;22.93;72.48;99925.63;4448339;32;34056;-82
2023/08/20 04:13:48;;;;;;;4.12;2.90;;;;;;;22.94;72.45;99922.91;4448621;32;33859;-82
2023/08/20 04:16:17;;;;;;;6.00;3.10;;;;;;;23.02;72.03;99925.13;4446220;32;33592;-82
2023/08/20 04:18:46;;;;;;;4.30;2.15;;;;;;;23.13;71.37;99929.78;4436723;32;33698;-82
2023/08/20 04:21:16;;;;;;;3.75;1.95;;;;;;;23.08;71.84;99926.56;4438522;32;34099;-83
2023/08/20 04:23:45;;;;;;;;;;;;;;;23.06;71.89;99931.09;4433563;32;34574;-83
2023/08/20 04:26:14;;;;;;;3.47;1.87;;;;;;;23.09;71.42;99921.16;4433323;32;34079;-82
2023/08/20 04:28:43;;;;;;;5.40;2.40;;;;;;;23.16;70.82;99921.62;4432963;32;33774;-82
2023/08/20 04:31:12;;;;;;;3.85;2.22;;;;;;;23.36;69.39;99936.28;4418715;32;33624;-82
2023/08/20 04:33:42;;;;;;;2.67;1.73;;;;;;;23.07;70.45;99936.28;4435950;32;34479;-83
2023/08/20 04:36:11;;;;;;;2.80;1.73;;;;;;;23.32;69.41;99935.62;4452196;32;34110;-82
2023/08/20 04:38:41;;;;;;;3.22;1.95;;;;;;;23.22;70.01;99939.78;4448223;32;33847;-83
2023/08/20 04:41:10;;;;;;;4.85;2.25;;;;;;;23.26;70.23;99940.44;4448429;32;34065;-83
2023/08/20 04:43:39;;;;;;;3.42;2.20;;;;;;;23.22;70.58;99945.09;4439587;32;33592;-82
2023/08/20 04:46:08;;;;;;;3.47;2.12;;;;;;;23.38;70.01;99943.16;4448526;32;33721;-82
2023/08/20 04:48:38;;;;;;;3.37;2.00;;;;;;;23.49;69.14;99949.63;4454288;32;34682;-82
2023/08/20 04:51:07;;;;;;;3.03;2.08;;;;;;;23.26;70.64;99938.63;4441623;32;34770;-82
2023/08/20 04:53:36;;;;;;;3.95;1.90;;;;;;;23.42;69.71;99942.03;4443274;32;34081;-82
2023/08/20 04:56:06;;;;;;;4.05;2.40;;;;;;;23.55;69.68;99950.06;4448166;32;34382;-82
2023/08/20 04:58:36;;;;;;;3.78;2.15;;;;;;;23.60;69.15;99944.47;4448157;32;33955;-83
2023/08/20 05:01:05;;;;;;;4.05;2.40;;;;;;;23.47;69.82;99948.84;4453664;32;33827;-83
2023/08/20 05:03:35;;;;;;;5.22;2.72;;;;;;;23.71;68.76;99942.00;4436293;32;34182;-82
2023/08/20 05:06:05;;;;;;;5.57;2.95;;;;;;;23.58;69.03;99949.00;4432424;32;33396;-82
2023/08/20 05:08:33;;;;;;;4.40;2.30;;;;;;;23.60;68.86;99952.41;4432960;32;33598;-83
2023/08/20 05:11:03;;;;;;;4.35;2.40;;;;;;;23.55;69.60;99954.50;4432327;32;33970;-82
2023/08/20 05:13:33;;;;;;;3.62;2.45;;;;;;;23.65;69.45;99950.31;4438356;32;33860;-82
2023/08/20 05:16:02;;;;;;;3.78;2.30;;;;;;;23.81;68.98;99947.59;4437607;32;33415;-82
2023/08/20 05:18:31;;;;;;;4.03;2.47;;;;;;;23.76;69.33;99955.84;4436725;32;33356;-82
2023/08/20 05:21:01;;;;;;;4.03;2.05;;;;;;;23.93;69.25;99962.69;4448037;32;33609;-82
2023/08/20 05:23:30;;;;;;;4.93;2.60;;;;;;;24.47;67.52;99960.06;4447693;32;33991;-83
2023/08/20 05:25:59;;;;;;;4.22;2.35;;;;;;;24.94;65.51;99949.84;4447818;32;33387;-83
2023/08/20 05:28:28;;;;;;;4.07;1.98;;;;;;;25.65;62.91;99948.41;4453474;32;33991;-83
2023/08/20 05:30:59;;;;;;;3.90;2.22;;;;;;;26.23;59.87;99951.31;4447885;32;34095;-82
2023/08/20 05:33:28;;;;;;;4.10;2.35;;;;;;;26.52;58.94;99954.44;4437614;32;33733;-83
2023/08/20 05:35:57;;;;;;;3.55;2.17;;;;;;;26.68;58.42;99946.19;4441021;32;33479;-83
2023/08/20 05:38:27;;;;;;;4.00;2.10;;;;;;;26.99;57.92;99959.78;4448260;32;33597;-83
2023/08/20 05:40:55;;;;;;;4.20;2.40;;;;;;;27.39;55.85;99956.72;4453597;32;36422;-83
2023/08/20 05:43:24;;;;;;;2.75;1.90;;;;;;;27.44;56.03;99954.53;4447140;32;34043;-82
2023/08/20 05:45:53;;;;;;;3.53;2.10;;;;;;;27.24;57.02;99959.62;4447604;32;33246;-83
2023/08/20 05:48:24;;;;;;;3.08;1.67;;;;;;;27.20;57.08;99966.12;4447969;32;33946;-83
2023/08/20 05:50:53;;;;;;;3.05;1.58;;;;;;;27.40;56.31;99969.06;4438906;32;33266;-83
2023/08/20 05:53:23;;;;;;;4.80;2.20;;;;;;;27.51;55.74;99965.56;4453635;32;33740;-83
2023/08/20 05:55:52;;;;;;;3.17;1.60;;;;;;;27.47;56.01;99958.75;4451880;32;33407;-83
2023/08/20 05:58:21;;;;;;;3.10;1.98;;;;;;;27.23;56.59;99957.06;4447401;32;33458;-83
2023/08/20 06:00:50;;;;;;;2.85;1.70;;;;;;;27.12;57.08;99970.34;4447801;32;34596;-83
2023/08/20 06:03:19;;;;;;;3.45;1.65;;;;;;;26.96;57.98;99960.88;4447503;32;34387;-83
2023/08/20 06:05:49;;;;;;;3.78;1.77;;;;;;;26.70;58.97;99981.53;4447604;32;33417;-83
2023/08/20 06:08:18;;;;;;;3.65;1.98;;;;;;;26.54;60.12;99973.00;4453400;32;34425;-82
2023/08/20 06:10:47;;;;;;;2.62;1.83;;;;;;;26.54;59.16;99981.81;4447430;32;33767;-83
2023/08/20 06:13:15;;;;;;;2.85;1.55;;;;;;;26.34;60.38;99977.97;4447654;32;34553;-83
2023/08/20 06:15:44;;;;;;;2.50;1.62;;;;;;;26.26;60.52;99975.00;4447163;32;33709;-83
2023/08/20 06:18:13;;;;;;;2.90;1.30;;;;;;;26.42;59.68;99980.06;4447340;32;34572;-83
2023/08/20 06:20:42;;;;;;;2.47;1.65;;;;;;;26.39;60.10;99978.47;4452768;32;34781;-83
2023/08/20 06:23:14;;;;;;;4.37;2.15;;;;;;;26.47;59.85;99988.53;4447235;32;34085;-82
2023/08/20 06:26:03;;;;;;;4.15;2.05;;;;;;;26.46;60.13;99988.63;4432811;32;32833;-82
2023/08/20 06:28:32;;;;;;;4.60;1.85;;;;;;;26.49;59.58;99983.97;4447315;32;34705;-82
2023/08/20 06:31:00;;;;;;;3.10;1.75;;;;;;;26.57;59.60;99986.06;4446968;32;34669;-83
2023/08/20 06:33:29;;;;;;;3.05;1.83;;;;;;;26.53;59.93;99979.25;4447419;32;34409;-82
2023/08/20 06:35:58;;;;;;;3.33;1.98;;;;;;;26.57;59.44;99988.72;4452580;32;32648;-82
2023/08/20 06:38:28;;;;;;;3.22;1.50;;;;;;;26.84;58.88;99982.28;4450030;32;33865;-82
2023/08/20 06:40:57;;;;;;;2.55;1.52;;;;;;;27.10;59.08;99982.94;4447367;32;33594;-83
2023/08/20 06:43:26;;;;;;;3.03;1.60;;;;;;;26.92;60.44;99982.56;4447142;32;33879;-83
2023/08/20 06:45:55;;;;;;;7.10;2.20;;;;;;;27.24;59.72;99986.25;4446851;32;33362;-82
2023/08/20 06:48:24;;;;;;;2.40;1.50;;;;;;;27.34;59.68;99990.88;4452907;32;34162;-82
2023/08/20 06:50:53;;;;;;;3.10;1.92;;;;;;;27.34;59.17;99985.53;4447104;32;34347;-82
2023/08/20 06:53:22;;;;;;;3.45;2.05;;;;;;;27.39;59.08;99978.87;4446403;32;33663;-82
2023/08/20 06:55:52;;;;;;;2.90;1.95;;;;;;;27.36;59.72;99979.13;4449597;32;34169;-82
2023/08/20 06:58:21;;;;;;;3.10;2.03;;;;;;;27.40;58.13;99985.91;4445934;32;32637;-82
2023/08/20 07:00:50;;;;;;;2.67;1.60;;;;;;;27.76;57.21;99977.75;4454354;32;33453;-82
2023/08/20 07:03:19;;;;;;;3.05;1.85;;;;;;;27.73;57.10;99983.34;4448632;32;34488;-82
2023/08/20 07:05:48;;;;;;;3.25;1.85;;;;;;;27.82;56.51;99986.16;4448628;32;33393;-82
2023/08/20 07:08:16;;;;;;;2.65;1.52;;;;;;;27.73;56.89;99983.34;4448322;32;34326;-83
2023/08/20 07:10:45;;;;;;;4.00;2.05;;;;;;;27.92;56.79;99986.25;4448513;32;33612;-83
2023/08/20 07:13:19;;;;;;;3.35;1.77;;;;;;;27.91;56.81;99987.22;4448148;32;33983;-82
2023/08/20 07:15:48;;;;;;;2.70;1.65;;;;;;;27.97;56.06;99988.53;4453724;32;32674;-82
2023/08/20 07:18:17;;;;;;;4.30;2.33;;;;;;;28.24;55.88;99994.28;4443680;32;34834;-82
2023/08/20 07:20:46;;;;;;;3.00;1.77;;;;;;;28.46;55.01;99988.06;4442626;32;34942;-83
2023/08/20 07:23:15;;;;;;;3.28;1.48;;;;;;;28.35;55.84;99993.41;4447509;32;34232;-82
2023/08/20 07:25:44;;;;;;;3.25;1.87;;;;;;;28.40;55.47;99993.87;4433345;32;33800;-82
2023/08/20 07:28:13;;;;;;;3.92;2.12;;;;;;;28.38;57.27;99994.97;4438871;32;33618;-82
2023/08/20 07:30:43;;;;;;;3.03;1.83;;;;;;;28.40;56.56;99991.19;4437395;32;34726;-83
2023/08/20 07:33:12;;;;;;;4.93;2.60;;;;;;;28.27;57.51;100002.06;4448717;32;34814;-82
2023/08/20 07:35:41;;;;;;;3.12;1.80;;;;;;;28.44;56.75;99997.12;4448839;32;34155;-82
2023/08/20 07:38:10;;;;;;;3.78;2.15;;;;;;;28.54;55.93;99991.88;4448722;32;33693;-82
2023/08/20 07:40:39;;;;;;;3.97;1.87;;;;;;;28.81;54.19;99994.09;4454916;32;34736;-82
2023/08/20 07:43:07;;;;;;;3.05;1.52;;;;;;;28.66;55.40;100001.56;4437633;32;32579;-83
2023/08/20 07:45:37;;;;;;;4.15;2.37;;;;;;;29.00;55.47;99998.72;4443924;32;33539;-82
2023/08/20 07:48:07;;;;;;;3.92;1.90;;;;;;;28.94;55.93;99995.56;4447372;32;34009;-83
2023/08/20 07:50:36;;;;;;;;;;;;;;;28.84;57.00;100000.00;4447647;32;33715;-83
2023/08/20 07:53:05;;;;;;;3.78;2.15;;;;;;;28.96;58.81;100002.63;4438958;32;34357;-82
2023/08/20 07:55:34;;;;;;;3.65;2.00;;;;;;;29.02;57.08;99994.94;4443052;32;33536;-82
2023/08/20 07:58:04;;;;;;;4.97;2.50;;;;;;;29.01;56.81;100003.91;4442773;32;33860;-82
2023/08/20 08:00:33;;;;;;;4.30;2.22;;;;;;;28.91;57.40;100001.16;4439828;32;33962;-83
2023/08/20 08:03:02;;;;;;;3.90;1.87;;;;;;;28.94;57.63;100003.56;4439787;32;34212;-83
2023/08/20 08:05:32;;;;;;;4.03;2.42;;;;;;;29.03;57.51;100003.78;4428891;32;113172;-82
2023/08/20 08:08:01;;;;;;;3.17;1.70;;;;;;;29.02;56.95;100002.06;4450660;32;33009;-82
2023/08/20 08:10:30;;;;;;;5.00;2.53;;;;;;;29.13;56.41;100000.22;4438431;32;34406;-81
2023/08/20 08:12:59;;;;;;;4.78;2.83;;;;;;;29.07;57.56;100006.09;4458843;32;33607;-82
2023/08/20 08:15:27;;;;;;;3.60;1.85;;;;;;;29.10;56.65;100008.50;4449817;32;33492;-81
2023/08/20 08:17:56;;;;;;;3.40;1.90;;;;;;;29.29;56.13;100002.41;4464041;32;33717;-81
2023/08/20 08:20:25;;;;;;;5.15;2.65;;;;;;;29.37;55.27;100008.94;4467460;32;33723;-81
2023/08/20 08:22:55;;;;;;;3.20;1.73;;;;;;;29.13;54.77;100000.22;4448458;32;34382;-81
2023/08/20 08:25:24;;;;;;;4.32;2.62;;;;;;;29.27;55.84;100009.72;4448281;32;33340;-82
2023/08/20 08:27:53;;;;;;;3.90;1.90;;;;;;;29.39;54.83;100002.47;4448412;32;34441;-82
2023/08/20 08:30:29;;;;;;;3.70;1.92;;;;;;;29.31;55.59;100005.81;4447289;32;34786;-81
2023/08/20 08:32:59;;;;;;;3.83;2.12;;;;;;;29.24;54.95;100010.00;4447961;32;34426;-81
2023/08/20 08:35:28;;;;;;;8.75;1.90;;;;;;;29.34;53.83;100012.72;4451444;32;32911;-82
2023/08/20 08:37:58;;;;;;;3.50;1.90;;;;;;;29.46;54.02;100008.12;4446584;32;33524;-82
2023/08/20 08:40:29;;;;;;;4.53;2.12;;;;;;;29.33;54.27;100008.34;4445755;32;34033;-82
2023/08/20 08:42:58;;;;;;;2.87;1.60;;;;;;;29.35;53.45;100009.87;4440079;32;34443;-81
2023/08/20 08:45:29;;;;;;;3.78;2.10;;;;;;;29.49;53.74;100003.34;4447191;32;33473;-82
2023/08/20 08:48:03;;;;;;;4.10;1.85;;;;;;;29.68;54.40;100001.78;4443115;32;34800;-82
2023/08/20 08:50:34;;;;;;;4.55;2.50;;;;;;;29.67;52.49;99997.38;4447605;32;34610;-82
2023/08/20 08:53:06;;;;;;;3.35;1.90;;;;;;;29.97;51.71;100002.69;4447366;32;34790;-81
2023/08/20 08:55:35;;;;;;;3.30;1.92;;;;;;;29.93;50.31;100008.44;4445653;32;34294;-82
2023/08/20 08:58:04;;;;;;;5.57;2.50;;;;;;;29.97;51.18;100000.03;4443148;32;34710;-81
2023/08/20 09:00:33;;;;;;;3.35;1.65;;;;;;;29.89;51.66;100005.22;4443381;32;33654;-82
2023/08/20 09:03:02;;;;;;;3.37;2.05;;;;;;;30.21;51.58;100012.19;4451051;32;34685;-82
2023/08/20 09:05:31;;;;;;;6.90;1.87;;;;;;;30.25;52.27;100012.72;4447410;32;33243;-82
2023/08/20 09:08:00;;;;;;;4.07;1.92;;;;;;;30.39;52.16;100009.69;4447293;32;33853;-82
2023/08/20 09:10:30;;;;;;;5.18;2.40;;;;;;;30.50;52.08;100009.56;4440328;32;34059;-82
2023/08/20 09:12:59;;;;;;;3.72;1.50;;;;;;;30.55;49.71;100003.78;4430220;32;33457;-82
2023/08/20 09:15:35;;;;;;;3.78;2.30;;;;;;;30.49;49.36;99998.97;4452842;32;33450;-82
2023/08/20 09:18:05;;;;;;;3.85;1.83;;;;;;;30.92;48.71;100008.44;4446798;32;33580;-82
2023/08/20 09:20:37;;;;;;;4.57;2.15;;;;;;;30.61;46.92;100008.56;4448790;32;34107;-81
2023/08/20 09:23:12;;;;;;;2.78;1.30;;;;;;;30.54;46.94;100004.75;4448028;32;34418;-82
2023/08/20 09:25:43;;;;;;;3.80;1.95;;;;;;;30.86;46.99;100012.53;4447854;32;34220;-82
2023/08/20 09:28:12;;;;;;;3.37;1.98;;;;;;;30.91;45.58;100012.94;4447222;32;33821;-81
2023/08/20 09:30:41;;;;;;;2.87;1.87;;;;;;;30.70;45.99;100009.56;4453473;32;34675;-82
2023/08/20 09:33:13;;;;;;;3.60;2.12;;;;;;;30.95;47.00;100006.31;4438545;32;33851;-81
2023/08/20 09:35:49;;;;;;;3.10;1.80;;;;;;;30.89;47.87;100012.25;4446689;32;33256;-81
2023/08/20 09:38:21;;;;;;;2.85;1.75;;;;;;;30.86;47.28;100011.66;4447821;32;34606;-82
2023/08/20 09:40:52;;;;;;;4.90;2.00;;;;;;;30.84;47.36;100009.16;4441086;32;34835;-82
2023/08/20 09:43:21;;;;;;;5.12;2.40;;;;;;;31.07;47.49;100009.66;4445058;32;33136;-82
2023/08/20 09:45:51;;;;;;;3.08;1.75;;;;;;;31.15;46.82;100007.13;4434662;32;34046;-82
2023/08/20 09:48:20;;;;;;;4.15;2.12;;;;;;;31.38;45.87;100012.94;4431859;32;34786;-82
2023/08/20 09:50:50;;;;;;;3.87;2.00;;;;;;;31.21;45.78;100005.69;4435383;32;34076;-82
2023/08/20 09:53:27;;;;;;;4.93;2.07;;;;;;;31.57;45.30;100004.03;4446931;32;33763;-82
2023/08/20 09:56:04;;;;;;;3.90;1.70;;;;;;;31.59;45.68;100004.72;4447878;32;34205;-82
2023/08/20 09:58:33;;;;;;;3.40;1.60;;;;;;;31.76;44.53;100004.94;4452767;32;33908;-81
2023/08/20 10:01:02;;;;;;;2.30;1.50;;;;;;;31.65;44.51;100001.47;4446167;32;33785;-81
2023/08/20 10:03:31;;;;;;;3.47;2.10;;;;;;;31.66;44.84;99999.63;4436935;32;33743;-81
2023/08/20 10:06:03;;;;;;;5.10;2.25;;;;;;;31.52;45.45;99997.41;4431752;32;32693;-82
2023/08/20 10:08:32;;;;;;;2.90;1.70;;;;;;;31.81;46.06;100000.78;4431674;32;33871;-81
2023/08/20 10:11:02;;;;;;;3.72;2.15;;;;;;;31.83;43.57;99996.13;4440939;32;33880;-82
2023/08/20 10:13:32;;;;;;;;;;;;;;;31.75;45.25;99993.37;4452867;32;35496;-82
2023/08/20 10:16:01;;;;;;;3.67;1.85;;;;;;;31.70;44.57;100001.00;4447457;32;34166;-82
2023/08/20 10:18:29;;;;;;;2.80;1.73;;;;;;;31.59;46.10;99996.69;4447495;32;33841;-82
2023/08/20 10:20:59;;;;;;;4.28;2.00;;;;;;;31.79;45.30;99992.06;4447217;32;33609;-81
2023/08/20 10:23:31;;;;;;;5.05;2.00;;;;;;;31.61;45.80;99992.00;4447228;32;33562;-82
2023/08/20 10:26:09;;;;;;;4.22;2.08;;;;;;;31.47;45.52;99989.81;4452853;32;33531;-81
2023/08/20 10:28:38;;;;;;;2.65;1.85;;;;;;;31.79;45.65;99991.22;4447532;32;33708;-82
2023/08/20 10:31:09;;;;;;;3.62;1.98;;;;;;;31.85;44.17;99986.09;4449123;32;34020;-82
2023/08/20 10:33:39;;;;;;;4.28;2.12;;;;;;;32.17;45.90;99992.00;4449211;32;34211;-81
2023/08/20 10:36:14;;;;;;;2.75;1.75;;;;;;;32.27;45.11;99988.22;4448845;32;33713;-81
2023/08/20 10:38:45;;;;;;;3.05;1.65;;;;;;;32.25;43.02;99987.53;4448769;32;33715;-82
2023/08/20 10:41:27;;;;;;;3.33;1.77;;;;;;;32.27;44.24;99985.56;4454477;32;34470;-81
2023/08/20 10:43:58;;;;;;;3.15;1.80;;;;;;;32.03;43.70;99980.78;4442217;32;33261;-82
2023/08/20 10:46:30;;;;;;;4.70;2.00;;;;;;;32.41;41.98;99983.34;4449103;32;33213;-82
2023/08/20 10:49:02;;;;;;;2.35;1.30;;;;;;;32.36;43.74;99981.13;4448483;32;33877;-82
2023/08/20 10:51:33;;;;;;;3.03;1.70;;;;;;;32.46;42.18;99976.50;4448210;32;34976;-81
2023/08/20 10:54:07;;;;;;;2.50;1.48;;;;;;;32.56;42.34;99980.97;4443915;32;33514;-81
2023/08/20 10:56:42;;;;;;;3.28;2.05;;;;;;;32.33;41.00;99983.25;4445786;32;33400;-81
2023/08/20 10:59:15;;;;;;;3.25;1.77;;;;;;;32.42;41.94;99974.28;4441369;32;33074;-81
2023/08/20 11:01:48;;;;;;;2.62;1.60;;;;;;;32.64;43.21;99975.66;4446026;32;34751;-81
2023/08/20 11:04:17;;;;;;;4.18;2.45;;;;;;;32.53;42.79;99967.88;4445910;32;34083;-81
2023/08/20 11:06:47;;;;;;;3.92;2.15;;;;;;;32.77;42.41;99972.59;4454091;32;33194;-81
2023/08/20 11:09:17;;;;;;;3.78;2.08;;;;;;;32.88;43.54;99975.00;4438748;32;33324;-82
2023/08/20 11:11:48;;;;;;;2.50;1.55;;;;;;;32.98;42.68;99969.53;4438581;32;33999;-81
2023/08/20 11:14:18;;;;;;;3.75;1.77;;;;;;;32.74;41.42;99971.03;4449072;32;34427;-81
2023/08/20 11:16:48;;;;;;;3.50;1.77;;;;;;;32.84;42.51;99968.28;4446912;32;32162;-81
2023/08/20 11:19:21;;;;;;;2.80;1.80;;;;;;;32.95;40.92;99963.47;4438256;32;33939;-82
2023/08/20 11:21:50;;;;;;;3.42;1.87;;;;;;;32.86;41.24;99968.94;4453745;32;34901;-81
2023/08/20 11:24:20;;;;;;;3.97;2.20;;;;;;;32.82;41.49;99965.72;4447801;32;32546;-80
2023/08/20 11:26:51;;;;;;;5.37;2.17;;;;;;;32.60;42.06;99971.63;4448026;32;34870;-81
2023/08/20 11:29:20;;;;;;;;;;;;;;;32.64;42.47;99968.44;4441554;32;34355;-81
2023/08/20 11:31:51;;;;;;;2.25;1.48;;;;;;;32.91;41.04;99958.56;4438784;32;35124;-81
2023/08/20 11:34:20;;;;;;;3.85;1.87;;;;;;;33.11;40.91;99960.06;4453098;32;34638;-81
2023/08/20 11:36:49;;;;;;;2.78;1.65;;;;;;;33.23;40.07;99955.25;4449487;32;34193;-81
2023/08/20 11:39:17;;;;;;;3.37;2.10;;;;;;;33.24;41.54;99961.47;4447661;32;34044;-82
2023/08/20 11:41:47;;;;;;;2.78;2.00;;;;;;;33.25;40.83;99952.41;4445455;32;34606;-81
2023/08/20 11:44:22;;;;;;;3.00;1.92;;;;;;;33.03;41.26;99951.06;4447131;32;33503;-82
2023/08/20 11:46:51;;;;;;;2.47;1.48;;;;;;;33.38;40.63;99943.91;4454019;32;33868;-82